createdAt,value
2017-01-13T00:00:02.081Z,2.6
2017-01-13T00:00:23.394Z,2.6
2017-01-13T00:00:44.716Z,2.6
2017-01-13T00:01:06.024Z,2.6
2017-01-13T00:01:27.330Z,2.6
2017-01-13T00:01:48.647Z,2.6
2017-01-13T00:02:09.958Z,2.6
2017-01-13T00:02:31.278Z,2.6
2017-01-13T00:02:52.579Z,2.6
2017-01-13T00:03:13.887Z,2.6
2017-01-13T00:03:35.197Z,2.5
2017-01-13T00:03:56.520Z,2.6
2017-01-13T00:04:17.839Z,2.6
2017-01-13T00:04:39.159Z,2.5
2017-01-13T00:05:00.465Z,2.5
2017-01-13T00:05:21.784Z,2.5
2017-01-13T00:05:43.107Z,2.5
2017-01-13T00:06:04.407Z,2.6
2017-01-13T00:06:25.717Z,2.5
2017-01-13T00:06:47.016Z,2.5
2017-01-13T00:07:08.328Z,2.4
2017-01-13T00:07:29.619Z,2.5
2017-01-13T00:07:50.926Z,2.4
2017-01-13T00:08:12.239Z,2.5
2017-01-13T00:08:33.562Z,2.4
2017-01-13T00:08:54.876Z,2.4
2017-01-13T00:09:16.188Z,2.5
2017-01-13T00:09:37.498Z,2.5
2017-01-13T00:09:58.839Z,2.4
2017-01-13T00:10:20.139Z,2.4
2017-01-13T00:10:41.453Z,2.4
2017-01-13T00:11:02.752Z,2.4
2017-01-13T00:11:24.048Z,2.4
2017-01-13T00:11:45.349Z,2.4
2017-01-13T00:12:06.699Z,2.5
2017-01-13T00:12:28.019Z,2.4
2017-01-13T00:12:49.353Z,2.4
2017-01-13T00:13:10.654Z,2.4
2017-01-13T00:13:31.961Z,2.5
2017-01-13T00:13:53.266Z,2.4
2017-01-13T00:14:14.568Z,2.4
2017-01-13T00:14:35.868Z,2.4
2017-01-13T00:14:57.171Z,2.4
2017-01-13T00:15:18.491Z,2.4
2017-01-13T00:15:39.787Z,2.4
2017-01-13T00:16:01.087Z,2.4
2017-01-13T00:16:22.440Z,2.4
2017-01-13T00:16:43.746Z,2.4
2017-01-13T00:17:05.036Z,2.4
2017-01-13T00:17:26.356Z,2.3
2017-01-13T00:17:47.661Z,2.3
2017-01-13T00:18:08.975Z,2.3
2017-01-13T00:18:30.270Z,2.3
2017-01-13T00:18:51.578Z,2.3
2017-01-13T00:19:12.915Z,2.3
2017-01-13T00:19:34.229Z,2.3
2017-01-13T00:19:55.526Z,2.3
2017-01-13T00:20:16.837Z,2.2
2017-01-13T00:20:38.160Z,2.2
2017-01-13T00:20:59.495Z,2.3
2017-01-13T00:21:20.797Z,2.3
2017-01-13T00:21:42.098Z,2.2
2017-01-13T00:22:03.408Z,2.3
2017-01-13T00:22:24.714Z,2.2
2017-01-13T00:22:46.022Z,2.2
2017-01-13T00:23:07.324Z,2.2
2017-01-13T00:23:28.702Z,2.2
2017-01-13T00:23:50.050Z,2.2
2017-01-13T00:24:11.359Z,2.2
2017-01-13T00:24:32.696Z,2.2
2017-01-13T00:24:54.005Z,2.2
2017-01-13T00:25:15.311Z,2.2
2017-01-13T00:25:36.613Z,2.2
2017-01-13T00:25:57.964Z,2.2
2017-01-13T00:26:19.274Z,2.2
2017-01-13T00:26:40.619Z,2.2
2017-01-13T00:27:01.934Z,2.2
2017-01-13T00:27:23.232Z,2.2
2017-01-13T00:27:44.535Z,2.2
2017-01-13T00:28:05.831Z,2.2
2017-01-13T00:28:27.149Z,2.2
2017-01-13T00:28:48.456Z,2.1
2017-01-13T00:29:09.769Z,2.1
2017-01-13T00:29:31.084Z,2.1
2017-01-13T00:29:52.418Z,2.2
2017-01-13T00:30:13.746Z,2.2
2017-01-13T00:30:35.043Z,2.2
2017-01-13T00:30:56.367Z,2.2
2017-01-13T00:31:17.677Z,2.1
2017-01-13T00:31:38.977Z,2.1
2017-01-13T00:32:00.292Z,2.1
2017-01-13T00:32:21.628Z,2.1
2017-01-13T00:32:42.938Z,2.1
2017-01-13T00:33:04.251Z,2.1
2017-01-13T00:33:25.568Z,2.1
2017-01-13T00:33:46.875Z,2.1
2017-01-13T00:34:08.190Z,2
2017-01-13T00:34:29.477Z,2.1
2017-01-13T00:34:50.788Z,2
2017-01-13T00:35:12.099Z,2.1
2017-01-13T00:35:33.434Z,2
2017-01-13T00:35:54.756Z,2
2017-01-13T00:36:16.086Z,2.1
2017-01-13T00:36:37.406Z,2
2017-01-13T00:36:58.711Z,2
2017-01-13T00:37:20.016Z,2
2017-01-13T00:37:41.327Z,2
2017-01-13T00:38:02.653Z,2
2017-01-13T00:38:23.951Z,2.1
2017-01-13T00:38:45.254Z,2
2017-01-13T00:39:06.560Z,2.1
2017-01-13T00:39:27.860Z,2
2017-01-13T00:39:49.197Z,2.1
2017-01-13T00:40:10.517Z,1.9
2017-01-13T00:40:31.809Z,2
2017-01-13T00:40:53.108Z,2
2017-01-13T00:41:14.419Z,1.8
2017-01-13T00:41:35.748Z,2
2017-01-13T00:41:57.051Z,2
2017-01-13T00:42:18.358Z,1.9
2017-01-13T00:42:39.664Z,1.9
2017-01-13T00:43:00.952Z,2
2017-01-13T00:43:22.282Z,1.9
2017-01-13T00:43:43.589Z,1.9
2017-01-13T00:44:04.894Z,1.9
2017-01-13T00:44:26.208Z,1.9
2017-01-13T00:44:47.502Z,2
2017-01-13T00:45:08.804Z,1.9
2017-01-13T00:45:30.098Z,1.9
2017-01-13T00:45:51.395Z,1.8
2017-01-13T00:46:12.734Z,1.9
2017-01-13T00:46:34.070Z,2
2017-01-13T00:46:55.379Z,1.9
2017-01-13T00:47:16.675Z,1.9
2017-01-13T00:47:37.972Z,2
2017-01-13T00:47:59.267Z,1.8
2017-01-13T00:48:20.566Z,1.9
2017-01-13T00:48:41.870Z,2
2017-01-13T00:49:03.170Z,1.9
2017-01-13T00:49:24.498Z,1.9
2017-01-13T00:49:45.803Z,1.8
2017-01-13T00:50:07.107Z,1.9
2017-01-13T00:50:28.401Z,1.9
2017-01-13T00:50:49.720Z,1.9
2017-01-13T00:51:11.021Z,1.9
2017-01-13T00:51:32.314Z,1.9
2017-01-13T00:51:53.632Z,1.9
2017-01-13T00:52:14.938Z,1.9
2017-01-13T00:52:36.240Z,1.9
2017-01-13T00:52:57.548Z,1.9
2017-01-13T00:53:18.840Z,1.9
2017-01-13T00:53:40.151Z,1.9
2017-01-13T00:54:01.457Z,1.9
2017-01-13T00:54:22.758Z,1.8
2017-01-13T00:54:44.055Z,1.9
2017-01-13T00:55:05.358Z,1.9
2017-01-13T00:55:26.665Z,1.9
2017-01-13T00:55:47.975Z,1.8
2017-01-13T00:56:09.306Z,1.9
2017-01-13T00:56:30.629Z,1.9
2017-01-13T00:56:51.930Z,1.9
2017-01-13T00:57:13.257Z,1.9
2017-01-13T00:57:34.579Z,1.9
2017-01-13T00:57:55.889Z,1.8
2017-01-13T00:58:17.212Z,1.9
2017-01-13T00:58:38.513Z,1.8
2017-01-13T00:58:59.851Z,1.9
2017-01-13T00:59:21.180Z,1.8
2017-01-13T00:59:42.486Z,2
2017-01-13T01:00:03.787Z,1.9
2017-01-13T01:00:25.096Z,1.8
2017-01-13T01:00:46.428Z,1.8
2017-01-13T01:01:07.744Z,2
2017-01-13T01:01:29.033Z,1.9
2017-01-13T01:01:50.345Z,2
2017-01-13T01:02:11.675Z,2
2017-01-13T01:02:32.972Z,1.9
2017-01-13T01:02:54.332Z,2
2017-01-13T01:03:15.642Z,2
2017-01-13T01:03:36.925Z,2
2017-01-13T01:03:58.246Z,2
2017-01-13T01:04:19.573Z,1.9
2017-01-13T01:04:40.894Z,2
2017-01-13T01:05:02.214Z,2
2017-01-13T01:05:23.545Z,2
2017-01-13T01:05:44.877Z,2
2017-01-13T01:06:06.164Z,2
2017-01-13T01:06:27.474Z,2
2017-01-13T01:06:48.777Z,2.1
2017-01-13T01:07:10.073Z,2
2017-01-13T01:07:31.399Z,2
2017-01-13T01:07:52.703Z,2
2017-01-13T01:08:14.011Z,2
2017-01-13T01:08:35.324Z,2
2017-01-13T01:08:56.631Z,2
2017-01-13T01:09:17.941Z,1.9
2017-01-13T01:09:39.251Z,2
2017-01-13T01:10:00.604Z,1.9
2017-01-13T01:10:21.938Z,1.9
2017-01-13T01:10:43.250Z,2
2017-01-13T01:11:04.535Z,2
2017-01-13T01:11:25.852Z,2
2017-01-13T01:11:47.176Z,1.9
2017-01-13T01:12:08.475Z,1.9
2017-01-13T01:12:29.786Z,2
2017-01-13T01:12:51.085Z,1.8
2017-01-13T01:13:12.403Z,1.9
2017-01-13T01:13:33.693Z,1.9
2017-01-13T01:13:54.982Z,1.9
2017-01-13T01:14:16.301Z,1.9
2017-01-13T01:14:37.592Z,1.9
2017-01-13T01:14:58.908Z,1.9
2017-01-13T01:15:20.206Z,1.9
2017-01-13T01:15:41.529Z,1.9
2017-01-13T01:16:02.815Z,2
2017-01-13T01:16:24.138Z,1.9
2017-01-13T01:16:45.459Z,1.9
2017-01-13T01:17:06.769Z,2
2017-01-13T01:17:28.067Z,1.9
2017-01-13T01:17:50.152Z,2
2017-01-13T01:18:11.465Z,1.9
2017-01-13T01:18:32.813Z,2
2017-01-13T01:18:54.125Z,1.9
2017-01-13T01:19:15.430Z,1.9
2017-01-13T01:19:36.763Z,2
2017-01-13T01:19:58.078Z,2
2017-01-13T01:20:19.392Z,2
2017-01-13T01:20:40.695Z,2
2017-01-13T01:21:02.039Z,2.1
2017-01-13T01:21:23.349Z,1.9
2017-01-13T01:21:44.653Z,2
2017-01-13T01:22:05.957Z,2
2017-01-13T01:22:27.276Z,2.1
2017-01-13T01:22:48.588Z,2.1
2017-01-13T01:23:09.911Z,2
2017-01-13T01:23:31.234Z,2.1
2017-01-13T01:23:52.555Z,2.1
2017-01-13T01:24:13.854Z,2.1
2017-01-13T01:24:35.179Z,2.1
2017-01-13T01:24:56.499Z,2.1
2017-01-13T01:25:17.830Z,2.1
2017-01-13T01:25:39.146Z,2.1
2017-01-13T01:26:00.446Z,2.2
2017-01-13T01:26:21.727Z,2.2
2017-01-13T01:26:43.040Z,2.2
2017-01-13T01:27:04.354Z,2.2
2017-01-13T01:27:25.669Z,2.2
2017-01-13T01:27:46.974Z,2.2
2017-01-13T01:28:08.322Z,2.2
2017-01-13T01:28:29.689Z,2.2
2017-01-13T01:28:50.990Z,2.2
2017-01-13T01:29:12.295Z,2.2
2017-01-13T01:29:33.603Z,2.2
2017-01-13T01:29:54.896Z,2.2
2017-01-13T01:30:16.248Z,2.2
2017-01-13T01:30:37.563Z,2.2
2017-01-13T01:30:58.845Z,2.2
2017-01-13T01:31:20.155Z,2.2
2017-01-13T01:31:41.469Z,2.2
2017-01-13T01:32:02.780Z,2.2
2017-01-13T01:32:24.088Z,2.3
2017-01-13T01:32:45.398Z,2.3
2017-01-13T01:33:06.719Z,2.3
2017-01-13T01:33:28.068Z,2.2
2017-01-13T01:33:49.381Z,2.3
2017-01-13T01:34:10.689Z,2.3
2017-01-13T01:34:32.022Z,2.3
2017-01-13T01:34:53.341Z,2.3
2017-01-13T01:35:14.631Z,2.4
2017-01-13T01:35:35.932Z,2.3
2017-01-13T01:35:57.244Z,2.4
2017-01-13T01:36:18.580Z,2.4
2017-01-13T01:36:39.921Z,2.4
2017-01-13T01:37:01.229Z,2.4
2017-01-13T01:37:22.553Z,2.4
2017-01-13T01:37:43.873Z,2.4
2017-01-13T01:38:05.193Z,2.4
2017-01-13T01:38:26.529Z,2.4
2017-01-13T01:38:47.840Z,2.4
2017-01-13T01:39:09.157Z,2.4
2017-01-13T01:39:30.474Z,2.4
2017-01-13T01:39:51.798Z,2.4
2017-01-13T01:40:13.112Z,2.4
2017-01-13T01:40:34.424Z,2.4
2017-01-13T01:40:55.755Z,2.4
2017-01-13T01:41:17.057Z,2.3
2017-01-13T01:41:38.361Z,2.4
2017-01-13T01:41:59.676Z,2.4
2017-01-13T01:42:20.980Z,2.4
2017-01-13T01:42:42.301Z,2.4
2017-01-13T01:43:14.589Z,2.4
2017-01-13T01:43:35.893Z,2.3
2017-01-13T01:43:57.225Z,2.3
2017-01-13T01:44:18.540Z,2.3
2017-01-13T01:44:39.878Z,2.3
2017-01-13T01:45:01.183Z,2.3
2017-01-13T01:45:22.497Z,2.3
2017-01-13T01:45:43.832Z,2.3
2017-01-13T01:46:05.160Z,2.3
2017-01-13T01:46:26.520Z,2.3
2017-01-13T01:46:47.833Z,2.3
2017-01-13T01:47:09.152Z,2.3
2017-01-13T01:47:30.466Z,2.3
2017-01-13T01:47:51.775Z,2.3
2017-01-13T01:48:13.080Z,2.3
2017-01-13T01:48:34.378Z,2.3
2017-01-13T01:48:55.684Z,2.3
2017-01-13T01:49:16.993Z,2.3
2017-01-13T01:49:38.300Z,2.4
2017-01-13T01:49:59.623Z,2.3
2017-01-13T01:50:20.916Z,2.3
2017-01-13T01:50:42.219Z,2.4
2017-01-13T01:51:03.533Z,2.4
2017-01-13T01:51:24.844Z,2.4
2017-01-13T01:51:46.143Z,2.4
2017-01-13T01:52:07.494Z,2.4
2017-01-13T01:52:28.798Z,2.4
2017-01-13T01:52:50.109Z,2.4
2017-01-13T01:53:11.424Z,2.4
2017-01-13T01:53:32.739Z,2.5
2017-01-13T01:53:54.038Z,2.5
2017-01-13T01:54:15.360Z,2.4
2017-01-13T01:54:36.682Z,2.5
2017-01-13T01:54:58.003Z,2.5
2017-01-13T01:55:19.327Z,2.5
2017-01-13T01:55:40.649Z,2.5
2017-01-13T01:56:01.968Z,2.5
2017-01-13T01:56:23.319Z,2.4
2017-01-13T01:56:44.637Z,2.5
2017-01-13T01:57:05.939Z,2.4
2017-01-13T01:57:27.262Z,2.5
2017-01-13T01:57:48.554Z,2.5
2017-01-13T01:58:10.070Z,2.5
2017-01-13T01:58:31.355Z,2.5
2017-01-13T01:58:52.648Z,2.5
2017-01-13T01:59:13.966Z,2.5
2017-01-13T01:59:35.267Z,2.4
2017-01-13T01:59:56.567Z,2.4
2017-01-13T02:00:17.867Z,2.5
2017-01-13T02:00:39.232Z,2.5
2017-01-13T02:01:00.552Z,2.5
2017-01-13T02:01:21.846Z,2.5
2017-01-13T02:01:43.170Z,2.6
2017-01-13T02:02:04.518Z,2.5
2017-01-13T02:02:25.838Z,2.5
2017-01-13T02:02:47.139Z,2.4
2017-01-13T02:03:11.285Z,2.4
2017-01-13T02:03:32.617Z,2.4
2017-01-13T02:03:53.926Z,2.5
2017-01-13T02:04:15.237Z,2.5
2017-01-13T02:04:36.548Z,2.6
2017-01-13T02:04:57.870Z,2.6
2017-01-13T02:05:19.208Z,2.6
2017-01-13T02:05:40.520Z,2.6
2017-01-13T02:06:01.827Z,2.6
2017-01-13T02:06:23.172Z,2.6
2017-01-13T02:06:44.496Z,2.6
2017-01-13T02:07:05.790Z,2.6
2017-01-13T02:07:27.126Z,2.6
2017-01-13T02:07:48.474Z,2.6
2017-01-13T02:08:09.769Z,2.6
2017-01-13T02:08:31.073Z,2.6
2017-01-13T02:08:52.450Z,2.6
2017-01-13T02:09:13.747Z,2.6
2017-01-13T02:09:35.036Z,2.5
2017-01-13T02:09:56.375Z,2.6
2017-01-13T02:10:17.695Z,2.6
2017-01-13T02:10:38.991Z,2.6
2017-01-13T02:11:00.312Z,2.6
2017-01-13T02:11:21.615Z,2.6
2017-01-13T02:11:42.904Z,2.6
2017-01-13T02:12:04.240Z,2.6
2017-01-13T02:12:25.558Z,2.6
2017-01-13T02:12:46.900Z,2.6
2017-01-13T02:13:08.210Z,2.6
2017-01-13T02:13:29.539Z,2.6
2017-01-13T02:13:50.855Z,2.6
2017-01-13T02:14:12.159Z,2.6
2017-01-13T02:14:33.488Z,2.7
2017-01-13T02:14:54.779Z,2.6
2017-01-13T02:15:16.084Z,2.7
2017-01-13T02:15:37.405Z,2.7
2017-01-13T02:15:58.708Z,2.7
2017-01-13T02:16:20.043Z,2.7
2017-01-13T02:16:41.364Z,2.6
2017-01-13T02:17:02.664Z,2.6
2017-01-13T02:17:24.024Z,2.6
2017-01-13T02:17:45.331Z,2.7
2017-01-13T02:18:06.677Z,2.7
2017-01-13T02:18:27.999Z,2.7
2017-01-13T02:18:49.313Z,2.7
2017-01-13T02:19:10.618Z,2.7
2017-01-13T02:19:31.938Z,2.6
2017-01-13T02:19:53.264Z,2.7
2017-01-13T02:20:14.618Z,2.6
2017-01-13T02:20:35.908Z,2.6
2017-01-13T02:20:57.238Z,2.6
2017-01-13T02:21:18.540Z,2.7
2017-01-13T02:21:39.855Z,2.7
2017-01-13T02:22:01.163Z,2.6
2017-01-13T02:22:22.470Z,2.7
2017-01-13T02:22:43.779Z,2.6
2017-01-13T02:23:05.087Z,2.6
2017-01-13T02:23:26.421Z,2.6
2017-01-13T02:23:47.724Z,2.7
2017-01-13T02:24:09.016Z,2.6
2017-01-13T02:24:30.341Z,2.6
2017-01-13T02:24:51.678Z,2.6
2017-01-13T02:25:12.998Z,2.6
2017-01-13T02:25:34.325Z,2.6
2017-01-13T02:25:55.610Z,2.7
2017-01-13T02:26:16.931Z,2.6
2017-01-13T02:26:38.230Z,2.6
2017-01-13T02:26:59.570Z,2.6
2017-01-13T02:27:20.881Z,2.5
2017-01-13T02:27:42.210Z,2.6
2017-01-13T02:28:03.528Z,2.6
2017-01-13T02:28:24.880Z,2.6
2017-01-13T02:28:46.186Z,2.6
2017-01-13T02:29:07.537Z,2.6
2017-01-13T02:29:29.811Z,2.6
2017-01-13T02:29:51.237Z,2.6
2017-01-13T02:30:12.670Z,2.6
2017-01-13T02:30:34.276Z,2.6
2017-01-13T02:30:55.860Z,2.6
2017-01-13T02:31:17.198Z,2.5
2017-01-13T02:31:38.510Z,2.6
2017-01-13T02:31:59.822Z,2.6
2017-01-13T02:32:21.164Z,2.6
2017-01-13T02:32:42.475Z,2.6
2017-01-13T02:33:03.786Z,2.6
2017-01-13T02:33:25.080Z,2.6
2017-01-13T02:33:46.379Z,2.6
2017-01-13T02:34:07.663Z,2.7
2017-01-13T02:34:29.000Z,2.7
2017-01-13T02:34:50.287Z,2.6
2017-01-13T02:35:11.630Z,2.7
2017-01-13T02:35:32.950Z,2.7
2017-01-13T02:35:54.262Z,2.7
2017-01-13T02:36:15.571Z,2.7
2017-01-13T02:36:36.864Z,2.7
2017-01-13T02:36:58.250Z,2.8
2017-01-13T02:37:19.543Z,2.7
2017-01-13T02:37:40.874Z,2.6
2017-01-13T02:38:02.182Z,2.7
2017-01-13T02:38:23.481Z,2.7
2017-01-13T02:38:44.783Z,2.7
2017-01-13T02:39:06.069Z,2.7
2017-01-13T02:39:27.403Z,2.7
2017-01-13T02:39:48.711Z,2.6
2017-01-13T02:40:10.040Z,2.6
2017-01-13T02:40:31.349Z,2.7
2017-01-13T02:40:52.679Z,2.7
2017-01-13T02:41:13.993Z,2.8
2017-01-13T02:41:35.322Z,2.8
2017-01-13T02:41:56.644Z,2.8
2017-01-13T02:42:17.964Z,2.7
2017-01-13T02:42:39.297Z,2.8
2017-01-13T02:43:00.591Z,2.8
2017-01-13T02:43:21.895Z,2.9
2017-01-13T02:43:43.200Z,2.8
2017-01-13T02:44:04.513Z,2.8
2017-01-13T02:44:25.824Z,2.8
2017-01-13T02:44:47.118Z,2.8
2017-01-13T02:45:08.424Z,2.8
2017-01-13T02:45:29.745Z,2.8
2017-01-13T02:45:51.055Z,2.8
2017-01-13T02:46:12.368Z,2.9
2017-01-13T02:46:33.678Z,2.8
2017-01-13T02:46:55.001Z,2.8
2017-01-13T02:47:16.326Z,2.9
2017-01-13T02:47:37.657Z,2.9
2017-01-13T02:47:58.962Z,2.9
2017-01-13T02:48:20.272Z,2.9
2017-01-13T02:48:41.571Z,2.8
2017-01-13T02:49:02.890Z,2.8
2017-01-13T02:49:24.188Z,2.8
2017-01-13T02:49:45.494Z,2.9
2017-01-13T02:50:06.798Z,2.8
2017-01-13T02:50:29.107Z,2.8
2017-01-13T02:50:51.910Z,2.8
2017-01-13T02:51:14.522Z,2.8
2017-01-13T02:51:36.413Z,2.9
2017-01-13T02:51:58.123Z,3
2017-01-13T02:52:19.552Z,2.8
2017-01-13T02:52:40.976Z,3
2017-01-13T02:53:02.571Z,2.9
2017-01-13T02:53:23.944Z,3
2017-01-13T02:53:45.266Z,2.9
2017-01-13T02:54:06.572Z,3
2017-01-13T02:54:27.874Z,2.9
2017-01-13T02:54:49.179Z,3
2017-01-13T02:55:10.481Z,3
2017-01-13T02:55:31.841Z,3
2017-01-13T02:55:53.157Z,2.8
2017-01-13T02:56:14.475Z,3
2017-01-13T02:56:35.776Z,3
2017-01-13T02:56:57.087Z,2.9
2017-01-13T02:57:18.432Z,2.9
2017-01-13T02:57:39.733Z,2.9
2017-01-13T02:58:01.045Z,2.8
2017-01-13T02:58:22.364Z,2.9
2017-01-13T02:58:43.660Z,2.8
2017-01-13T02:59:04.965Z,2.8
2017-01-13T02:59:26.289Z,2.9
2017-01-13T02:59:47.607Z,2.8
2017-01-13T03:00:08.912Z,2.8
2017-01-13T03:00:30.247Z,3
2017-01-13T03:00:51.565Z,2.9
2017-01-13T03:01:12.865Z,2.9
2017-01-13T03:01:34.205Z,2.8
2017-01-13T03:01:55.520Z,2.9
2017-01-13T03:02:16.844Z,3
2017-01-13T03:02:38.152Z,2.9
2017-01-13T03:02:59.445Z,2.9
2017-01-13T03:03:20.756Z,2.8
2017-01-13T03:03:42.060Z,2.8
2017-01-13T03:04:03.379Z,2.9
2017-01-13T03:04:24.700Z,2.8
2017-01-13T03:04:46.006Z,2.8
2017-01-13T03:05:07.297Z,2.8
2017-01-13T03:05:28.605Z,2.8
2017-01-13T03:05:49.904Z,2.8
2017-01-13T03:06:11.217Z,2.9
2017-01-13T03:06:32.527Z,2.8
2017-01-13T03:06:53.818Z,2.8
2017-01-13T03:07:15.123Z,2.8
2017-01-13T03:07:36.448Z,2.8
2017-01-13T03:07:57.747Z,2.8
2017-01-13T03:08:19.055Z,2.9
2017-01-13T03:08:40.380Z,2.8
2017-01-13T03:09:01.703Z,2.9
2017-01-13T03:09:23.007Z,2.8
2017-01-13T03:09:44.305Z,2.9
2017-01-13T03:10:05.599Z,3
2017-01-13T03:10:27.005Z,2.9
2017-01-13T03:10:48.320Z,3
2017-01-13T03:11:09.659Z,3
2017-01-13T03:11:30.963Z,3
2017-01-13T03:11:52.312Z,3
2017-01-13T03:12:13.626Z,3
2017-01-13T03:12:34.951Z,3
2017-01-13T03:12:56.307Z,2.9
2017-01-13T03:13:17.620Z,3
2017-01-13T03:13:38.916Z,3
2017-01-13T03:14:00.223Z,3.1
2017-01-13T03:14:21.527Z,3.1
2017-01-13T03:14:42.851Z,3
2017-01-13T03:15:04.153Z,3
2017-01-13T03:15:25.483Z,3.1
2017-01-13T03:15:46.793Z,3.1
2017-01-13T03:16:08.137Z,3.1
2017-01-13T03:16:29.463Z,3.1
2017-01-13T03:16:50.778Z,3.2
2017-01-13T03:17:12.085Z,3.1
2017-01-13T03:17:33.426Z,3.2
2017-01-13T03:17:54.735Z,3.2
2017-01-13T03:18:16.063Z,3.2
2017-01-13T03:18:37.376Z,3.2
2017-01-13T03:18:58.698Z,3.2
2017-01-13T03:19:20.003Z,3.2
2017-01-13T03:19:41.299Z,3.2
2017-01-13T03:20:02.633Z,3.2
2017-01-13T03:20:23.968Z,3.2
2017-01-13T03:20:45.285Z,3.3
2017-01-13T03:21:06.591Z,3.3
2017-01-13T03:21:27.895Z,3.2
2017-01-13T03:21:49.187Z,3.2
2017-01-13T03:22:10.487Z,3.3
2017-01-13T03:22:31.772Z,3.3
2017-01-13T03:22:53.086Z,3.3
2017-01-13T03:23:14.398Z,3.2
2017-01-13T03:23:35.698Z,3.3
2017-01-13T03:23:57.006Z,3.2
2017-01-13T03:24:18.309Z,3.2
2017-01-13T03:24:39.626Z,3.2
2017-01-13T03:25:00.930Z,3.2
2017-01-13T03:25:22.264Z,3.2
2017-01-13T03:25:43.566Z,3.3
2017-01-13T03:26:04.862Z,3.2
2017-01-13T03:26:26.166Z,3.2
2017-01-13T03:26:47.485Z,3.2
2017-01-13T03:27:08.784Z,3.3
2017-01-13T03:27:30.077Z,3.2
2017-01-13T03:27:51.384Z,3.2
2017-01-13T03:28:12.691Z,3.2
2017-01-13T03:28:34.021Z,3.2
2017-01-13T03:28:55.334Z,3.2
2017-01-13T03:29:16.643Z,3.3
2017-01-13T03:29:37.952Z,3.2
2017-01-13T03:29:59.263Z,3.2
2017-01-13T03:30:20.578Z,3.3
2017-01-13T03:30:41.954Z,3.3
2017-01-13T03:31:03.253Z,3.4
2017-01-13T03:31:24.613Z,3.4
2017-01-13T03:31:45.932Z,3.4
2017-01-13T03:32:07.283Z,3.3
2017-01-13T03:32:28.580Z,3.4
2017-01-13T03:32:49.921Z,3.3
2017-01-13T03:33:11.238Z,3.3
2017-01-13T03:33:32.536Z,3.4
2017-01-13T03:33:53.887Z,3.4
2017-01-13T03:34:15.187Z,3.4
2017-01-13T03:34:36.479Z,3.3
2017-01-13T03:34:57.799Z,3.4
2017-01-13T03:35:19.106Z,3.4
2017-01-13T03:35:40.410Z,3.4
2017-01-13T03:36:01.722Z,3.4
2017-01-13T03:36:23.055Z,3.4
2017-01-13T03:36:44.351Z,3.4
2017-01-13T03:37:05.669Z,3.4
2017-01-13T03:37:26.968Z,3.4
2017-01-13T03:37:48.303Z,3.4
2017-01-13T03:38:09.617Z,3.4
2017-01-13T03:38:30.928Z,3.4
2017-01-13T03:38:52.243Z,3.4
2017-01-13T03:39:13.556Z,3.4
2017-01-13T03:39:34.882Z,3.4
2017-01-13T03:39:56.195Z,3.4
2017-01-13T03:40:17.491Z,3.4
2017-01-13T03:40:38.826Z,3.4
2017-01-13T03:41:00.114Z,3.4
2017-01-13T03:41:21.430Z,3.4
2017-01-13T03:41:42.764Z,3.4
2017-01-13T03:42:04.090Z,3.4
2017-01-13T03:42:25.430Z,3.4
2017-01-13T03:42:46.739Z,3.4
2017-01-13T03:43:08.042Z,3.4
2017-01-13T03:43:29.371Z,3.5
2017-01-13T03:43:50.694Z,3.4
2017-01-13T03:44:11.999Z,3.4
2017-01-13T03:44:33.311Z,3.5
2017-01-13T03:44:54.607Z,3.4
2017-01-13T03:45:15.918Z,3.5
2017-01-13T03:45:37.216Z,3.4
2017-01-13T03:45:58.524Z,3.4
2017-01-13T03:46:19.823Z,3.5
2017-01-13T03:46:41.137Z,3.3
2017-01-13T03:47:02.440Z,3.4
2017-01-13T03:47:23.743Z,3.4
2017-01-13T03:47:45.067Z,3.4
2017-01-13T03:48:06.396Z,3.4
2017-01-13T03:48:27.708Z,3.3
2017-01-13T03:48:49.018Z,3.4
2017-01-13T03:49:10.341Z,3.4
2017-01-13T03:49:31.648Z,3.3
2017-01-13T03:49:52.967Z,3.3
2017-01-13T03:50:14.354Z,3.3
2017-01-13T03:50:35.665Z,3.3
2017-01-13T03:50:56.977Z,3.3
2017-01-13T03:51:18.307Z,3.3
2017-01-13T03:51:39.625Z,3.3
2017-01-13T03:52:00.933Z,3.3
2017-01-13T03:52:22.236Z,3.4
2017-01-13T03:52:43.572Z,3.4
2017-01-13T03:53:04.871Z,3.3
2017-01-13T03:53:26.194Z,3.4
2017-01-13T03:53:47.494Z,3.4
2017-01-13T03:54:08.815Z,3.4
2017-01-13T03:54:30.110Z,3.4
2017-01-13T03:54:51.421Z,3.5
2017-01-13T03:55:12.734Z,3.4
2017-01-13T03:55:34.107Z,3.4
2017-01-13T03:55:55.410Z,3.4
2017-01-13T03:56:16.721Z,3.4
2017-01-13T03:56:38.039Z,3.4
2017-01-13T03:56:59.365Z,3.4
2017-01-13T03:57:20.700Z,3.4
2017-01-13T03:57:42.023Z,3.4
2017-01-13T03:58:03.339Z,3.4
2017-01-13T03:58:24.644Z,3.4
2017-01-13T03:58:45.951Z,3.4
2017-01-13T03:59:07.257Z,3.4
2017-01-13T03:59:28.565Z,3.4
2017-01-13T03:59:49.871Z,3.3
2017-01-13T04:00:11.183Z,3.5
2017-01-13T04:00:32.501Z,3.4
2017-01-13T04:00:53.823Z,3.5
2017-01-13T04:01:15.123Z,3.4
2017-01-13T04:01:36.438Z,3.4
2017-01-13T04:01:57.737Z,3.5
2017-01-13T04:02:19.048Z,3.5
2017-01-13T04:02:40.342Z,3.5
2017-01-13T04:03:01.646Z,3.5
2017-01-13T04:03:22.958Z,3.4
2017-01-13T04:03:44.262Z,3.5
2017-01-13T04:04:05.574Z,3.4
2017-01-13T04:04:26.877Z,3.5
2017-01-13T04:04:48.175Z,3.5
2017-01-13T04:05:09.492Z,3.5
2017-01-13T04:05:30.800Z,3.4
2017-01-13T04:05:52.128Z,3.4
2017-01-13T04:06:13.452Z,3.4
2017-01-13T04:06:34.775Z,3.4
2017-01-13T04:06:56.067Z,3.4
2017-01-13T04:07:17.399Z,3.4
2017-01-13T04:07:38.735Z,3.4
2017-01-13T04:08:00.068Z,3.4
2017-01-13T04:08:21.386Z,3.4
2017-01-13T04:08:42.721Z,3.4
2017-01-13T04:09:08.626Z,3.4
2017-01-13T04:09:32.830Z,3.5
2017-01-13T04:09:54.176Z,3.5
2017-01-13T04:10:15.488Z,3.5
2017-01-13T04:10:36.820Z,3.5
2017-01-13T04:10:58.125Z,3.5
2017-01-13T04:11:19.439Z,3.4
2017-01-13T04:11:40.739Z,3.5
2017-01-13T04:12:02.039Z,3.4
2017-01-13T04:12:23.364Z,3.5
2017-01-13T04:12:44.665Z,3.5
2017-01-13T04:13:05.969Z,3.5
2017-01-13T04:13:27.281Z,3.5
2017-01-13T04:13:48.594Z,3.5
2017-01-13T04:14:09.901Z,3.4
2017-01-13T04:14:31.204Z,3.5
2017-01-13T04:14:52.511Z,3.5
2017-01-13T04:15:13.831Z,3.4
2017-01-13T04:15:35.150Z,3.5
2017-01-13T04:15:56.474Z,3.4
2017-01-13T04:16:17.776Z,3.4
2017-01-13T04:16:39.085Z,3.5
2017-01-13T04:17:00.400Z,3.5
2017-01-13T04:17:21.715Z,3.5
2017-01-13T04:17:43.730Z,3.5
2017-01-13T04:18:05.061Z,3.4
2017-01-13T04:18:26.412Z,3.4
2017-01-13T04:18:47.711Z,3.4
2017-01-13T04:19:09.033Z,3.4
2017-01-13T04:19:30.334Z,3.4
2017-01-13T04:19:51.677Z,3.5
2017-01-13T04:20:12.999Z,3.4
2017-01-13T04:20:34.326Z,3.4
2017-01-13T04:20:55.635Z,3.4
2017-01-13T04:21:16.934Z,3.4
2017-01-13T04:21:38.256Z,3.4
2017-01-13T04:21:59.569Z,3.5
2017-01-13T04:22:20.875Z,3.4
2017-01-13T04:22:42.201Z,3.4
2017-01-13T04:23:03.517Z,3.4
2017-01-13T04:23:24.844Z,3.5
2017-01-13T04:23:46.139Z,3.4
2017-01-13T04:24:07.451Z,3.5
2017-01-13T04:24:28.762Z,3.4
2017-01-13T04:24:50.077Z,3.4
2017-01-13T04:25:11.371Z,3.5
2017-01-13T04:25:33.410Z,3.4
2017-01-13T04:25:54.717Z,3.4
2017-01-13T04:26:16.023Z,3.4
2017-01-13T04:26:37.345Z,3.4
2017-01-13T04:26:58.637Z,3.4
2017-01-13T04:28:21.569Z,3.4
2017-01-13T04:28:42.881Z,3.5
2017-01-13T04:29:04.179Z,3.5
2017-01-13T04:29:25.484Z,3.5
2017-01-13T04:29:46.782Z,3.5
2017-01-13T04:30:08.093Z,3.4
2017-01-13T04:30:29.382Z,3.5
2017-01-13T04:30:50.862Z,3.5
2017-01-13T04:31:12.164Z,3.4
2017-01-13T04:31:33.460Z,3.5
2017-01-13T04:31:54.757Z,3.5
2017-01-13T04:32:16.049Z,3.5
2017-01-13T04:32:37.336Z,3.5
2017-01-13T04:32:58.620Z,3.5
2017-01-13T04:33:19.929Z,3.6
2017-01-13T04:33:41.232Z,3.5
2017-01-13T04:34:02.535Z,3.6
2017-01-13T04:34:23.844Z,3.6
2017-01-13T04:34:45.379Z,3.5
2017-01-13T04:35:06.673Z,3.5
2017-01-13T04:35:27.973Z,3.6
2017-01-13T04:35:49.272Z,3.6
2017-01-13T04:36:10.563Z,3.6
2017-01-13T04:36:31.886Z,3.6
2017-01-13T04:36:53.191Z,3.6
2017-01-13T04:37:14.513Z,3.7
2017-01-13T04:37:35.807Z,3.7
2017-01-13T04:37:57.114Z,3.6
2017-01-13T04:38:18.404Z,3.6
2017-01-13T04:38:39.698Z,3.5
2017-01-13T04:39:00.996Z,3.6
2017-01-13T04:39:22.302Z,3.7
2017-01-13T04:39:43.597Z,3.7
2017-01-13T04:40:04.920Z,3.5
2017-01-13T04:40:26.255Z,3.6
2017-01-13T04:40:47.552Z,3.5
2017-01-13T04:41:08.864Z,3.5
2017-01-13T04:41:30.164Z,3.7
2017-01-13T04:41:51.471Z,3.5
2017-01-13T04:42:12.761Z,3.6
2017-01-13T04:42:34.059Z,3.6
2017-01-13T04:42:55.555Z,3.7
2017-01-13T04:43:16.861Z,3.6
2017-01-13T04:43:38.199Z,3.6
2017-01-13T04:43:59.492Z,3.6
2017-01-13T04:44:20.792Z,3.7
2017-01-13T04:44:42.127Z,3.7
2017-01-13T04:45:03.762Z,3.6
2017-01-13T04:45:25.079Z,3.6
2017-01-13T04:45:46.385Z,3.6
2017-01-13T04:46:07.680Z,3.6
2017-01-13T04:46:28.974Z,3.5
2017-01-13T04:46:50.266Z,3.6
2017-01-13T04:47:11.596Z,3.6
2017-01-13T04:47:32.895Z,3.7
2017-01-13T04:47:54.187Z,3.5
2017-01-13T04:48:15.487Z,3.6
2017-01-13T04:48:36.816Z,3.6
2017-01-13T04:48:58.118Z,3.6
2017-01-13T04:49:19.416Z,3.6
2017-01-13T04:49:40.717Z,3.6
2017-01-13T04:50:02.014Z,3.5
2017-01-13T04:50:23.327Z,3.6
2017-01-13T04:50:44.722Z,3.6
2017-01-13T04:51:06.037Z,3.6
2017-01-13T04:51:27.333Z,3.6
2017-01-13T04:51:48.640Z,3.5
2017-01-13T04:52:09.948Z,3.7
2017-01-13T04:52:31.259Z,3.6
2017-01-13T04:52:52.566Z,3.7
2017-01-13T04:53:13.864Z,3.6
2017-01-13T04:53:35.160Z,3.7
2017-01-13T04:53:57.112Z,3.7
2017-01-13T04:54:18.414Z,3.6
2017-01-13T04:54:39.729Z,3.7
2017-01-13T04:55:01.029Z,3.6
2017-01-13T04:55:22.323Z,3.7
2017-01-13T04:55:43.627Z,3.6
2017-01-13T04:56:04.939Z,3.7
2017-01-13T04:56:26.242Z,3.6
2017-01-13T04:56:47.562Z,3.6